createdAt,value
2024-01-16T00:00:26.088Z,56.52
2024-01-16T00:01:32.659Z,56.36
2024-01-16T00:02:42.505Z,56.69
2024-01-16T00:03:51.723Z,57.03
2024-01-16T00:04:58.350Z,56.99
2024-01-16T00:06:05.889Z,57.17
2024-01-16T00:07:12.507Z,57.33
2024-01-16T00:08:18.849Z,57.57
2024-01-16T00:09:25.415Z,57.76
2024-01-16T00:10:31.819Z,57.93
2024-01-16T00:11:38.403Z,58.26
2024-01-16T00:12:43.079Z,58.33
2024-01-16T00:13:50.096Z,58.62
2024-01-16T00:14:54.057Z,58.65
2024-01-16T00:16:00.622Z,58.82
2024-01-16T00:17:05.262Z,59.07
2024-01-16T00:18:09.665Z,59.14
2024-01-16T00:19:22.144Z,59.18
2024-01-16T00:20:27.049Z,59.31
2024-01-16T00:21:33.540Z,59.55
2024-01-16T00:22:39.827Z,59.61
2024-01-16T00:23:46.411Z,59.60
2024-01-16T00:24:52.629Z,59.82
2024-01-16T00:25:59.145Z,59.92
2024-01-16T00:27:08.992Z,59.98
2024-01-16T00:28:17.127Z,60.10
2024-01-16T00:29:23.402Z,60.22
2024-01-16T00:30:30.835Z,60.29
2024-01-16T00:31:34.716Z,60.41
2024-01-16T00:32:43.913Z,60.49
2024-01-16T00:33:48.036Z,60.40
2024-01-16T00:34:57.215Z,60.41
2024-01-16T00:36:03.918Z,60.45
2024-01-16T00:37:10.476Z,60.39
2024-01-16T00:38:14.383Z,60.51
2024-01-16T00:39:20.878Z,60.58
2024-01-16T00:40:24.775Z,60.56
2024-01-16T00:41:31.394Z,60.58
2024-01-16T00:42:35.367Z,60.69
2024-01-16T00:43:44.311Z,60.66
2024-01-16T00:44:48.226Z,60.75
2024-01-16T00:45:54.861Z,60.99
2024-01-16T00:46:58.950Z,61.22
2024-01-16T00:48:12.036Z,61.40
2024-01-16T00:49:17.649Z,61.64
2024-01-16T00:50:28.902Z,61.94
2024-01-16T00:51:32.824Z,62.10
2024-01-16T00:52:41.588Z,62.37
2024-01-16T00:53:45.825Z,62.43
2024-01-16T00:54:49.776Z,62.46
2024-01-16T00:55:56.275Z,62.45
2024-01-16T00:57:02.498Z,62.62
2024-01-16T00:58:08.939Z,62.69
2024-01-16T00:59:13.396Z,62.81
2024-01-16T01:00:20.530Z,62.91
2024-01-16T01:01:26.742Z,63.05
2024-01-16T01:02:33.358Z,63.15
2024-01-16T01:03:37.234Z,63.06
2024-01-16T01:04:44.481Z,63.23
2024-01-16T01:05:51.307Z,63.34
2024-01-16T01:06:57.876Z,63.27
2024-01-16T01:08:01.881Z,63.18
2024-01-16T01:09:08.398Z,63.16
2024-01-16T01:10:12.329Z,63.14
2024-01-16T01:11:16.296Z,63.14
2024-01-16T01:12:24.260Z,63.04
2024-01-16T01:13:31.189Z,62.97
2024-01-16T01:14:37.795Z,62.86
2024-01-16T01:15:41.925Z,63.02
2024-01-16T01:16:48.539Z,63.09
2024-01-16T01:17:55.777Z,63.26
2024-01-16T01:19:02.573Z,63.11
2024-01-16T01:20:09.842Z,63.13
2024-01-16T01:21:19.018Z,63.25
2024-01-16T01:22:23.166Z,63.20
2024-01-16T01:23:29.728Z,63.10
2024-01-16T01:24:33.690Z,63.03
2024-01-16T01:25:43.993Z,62.83
2024-01-16T01:26:50.128Z,62.65
2024-01-16T01:27:58.904Z,62.67
2024-01-16T01:29:03.578Z,62.66
2024-01-16T01:30:10.366Z,62.55
2024-01-16T01:31:17.297Z,62.63
2024-01-16T01:32:21.596Z,62.56
2024-01-16T01:33:28.282Z,62.48
2024-01-16T01:34:32.361Z,62.69
2024-01-16T01:35:38.870Z,62.85
2024-01-16T01:36:47.888Z,62.81
2024-01-16T01:37:56.743Z,62.78
2024-01-16T01:39:04.359Z,62.63
2024-01-16T01:40:13.968Z,62.59
2024-01-16T01:41:18.499Z,62.62
2024-01-16T01:42:25.113Z,62.78
2024-01-16T01:43:32.026Z,62.72
2024-01-16T01:44:38.616Z,62.80
2024-01-16T01:45:44.937Z,62.79
2024-01-16T01:46:53.696Z,62.82
2024-01-16T01:47:58.078Z,62.81
2024-01-16T01:49:05.451Z,62.70
2024-01-16T01:50:14.723Z,62.53
2024-01-16T01:51:21.862Z,62.59
2024-01-16T01:52:34.696Z,62.66
2024-01-16T01:53:40.104Z,62.46
2024-01-16T01:54:50.280Z,62.34
2024-01-16T01:55:56.108Z,62.54
2024-01-16T01:57:03.200Z,62.56
2024-01-16T01:58:07.985Z,62.61
2024-01-16T01:59:19.376Z,62.63
2024-01-16T02:00:25.872Z,62.46
2024-01-16T02:01:35.910Z,62.66
2024-01-16T02:02:41.748Z,62.68
2024-01-16T02:03:50.374Z,62.47
2024-01-16T02:04:54.502Z,62.58
2024-01-16T02:06:01.425Z,62.15
2024-01-16T02:07:06.371Z,62.21
2024-01-16T02:08:15.525Z,62.50
2024-01-16T02:09:19.423Z,62.53
2024-01-16T02:10:25.937Z,62.05
2024-01-16T02:11:30.080Z,62.43
2024-01-16T02:12:36.857Z,62.34
2024-01-16T02:13:41.257Z,62.34
2024-01-16T02:14:50.748Z,62.50
2024-01-16T02:15:54.691Z,62.45
2024-01-16T02:17:01.252Z,62.40
2024-01-16T02:18:07.459Z,62.41
2024-01-16T02:19:14.192Z,62.39
2024-01-16T02:20:18.179Z,62.36
2024-01-16T02:21:27.129Z,62.27
2024-01-16T02:22:37.263Z,62.06
2024-01-16T02:23:46.425Z,62.27
2024-01-16T02:24:53.460Z,62.24
2024-01-16T02:25:57.685Z,61.89
2024-01-16T02:27:07.068Z,61.96
2024-01-16T02:28:11.013Z,62.09
2024-01-16T02:29:17.618Z,61.99
2024-01-16T02:30:23.986Z,62.02
2024-01-16T02:31:30.620Z,61.77
2024-01-16T02:32:34.631Z,61.92
2024-01-16T02:33:44.694Z,62.16
2024-01-16T02:34:48.621Z,62.06
2024-01-16T02:35:57.271Z,62.19
2024-01-16T02:37:01.185Z,62.23
2024-01-16T02:38:08.313Z,62.23
2024-01-16T02:39:14.827Z,62.30
2024-01-16T02:40:23.576Z,62.09
2024-01-16T02:41:27.627Z,62.04
2024-01-16T02:42:37.473Z,62.33
2024-01-16T02:43:43.716Z,62.14
2024-01-16T02:44:53.412Z,62.37
2024-01-16T02:45:57.393Z,62.04
2024-01-16T02:47:08.538Z,62.16
2024-01-16T02:48:13.093Z,62.39
2024-01-16T02:49:19.751Z,62.13
2024-01-16T02:50:26.144Z,62.26
2024-01-16T02:51:32.716Z,62.22
2024-01-16T02:52:39.225Z,62.29
2024-01-16T02:53:45.816Z,62.29
2024-01-16T02:54:54.776Z,62.17
2024-01-16T02:56:03.825Z,62.26
2024-01-16T02:57:07.732Z,62.16
2024-01-16T02:58:16.791Z,62.07
2024-01-16T02:59:23.243Z,62.21
2024-01-16T03:00:29.774Z,62.27
2024-01-16T03:01:33.657Z,62.25
2024-01-16T03:02:37.595Z,62.20
2024-01-16T03:03:44.152Z,62.07
2024-01-16T03:04:48.032Z,62.09
2024-01-16T03:05:54.631Z,62.35
2024-01-16T03:06:58.656Z,62.41
2024-01-16T03:08:08.940Z,62.45
2024-01-16T03:09:13.581Z,62.41
2024-01-16T03:10:22.755Z,62.77
2024-01-16T03:11:32.624Z,62.77
2024-01-16T03:12:42.203Z,62.73
2024-01-16T03:13:46.430Z,62.73
2024-01-16T03:14:54.552Z,62.66
2024-01-16T03:15:58.362Z,62.73
2024-01-16T03:17:08.362Z,62.65
2024-01-16T03:18:13.338Z,62.63
2024-01-16T03:19:20.092Z,62.57
2024-01-16T03:20:24.545Z,62.50
2024-01-16T03:21:33.632Z,62.59
2024-01-16T03:22:37.551Z,62.60
2024-01-16T03:23:46.716Z,62.39
2024-01-16T03:24:50.679Z,62.33
2024-01-16T03:26:02.000Z,62.21
2024-01-16T03:27:06.299Z,62.18
2024-01-16T03:28:12.759Z,62.37
2024-01-16T03:29:16.692Z,62.46
2024-01-16T03:30:23.444Z,62.38
2024-01-16T03:31:27.467Z,62.52
2024-01-16T03:32:34.161Z,62.61
2024-01-16T03:33:43.974Z,62.48
2024-01-16T03:34:50.894Z,62.51
2024-01-16T03:35:57.419Z,62.54
2024-01-16T03:37:03.550Z,62.56
2024-01-16T03:38:10.257Z,62.56
2024-01-16T03:39:14.186Z,62.61
2024-01-16T03:40:21.399Z,62.41
2024-01-16T03:41:29.225Z,62.63
2024-01-16T03:42:35.728Z,62.60
2024-01-16T03:43:40.706Z,62.60
2024-01-16T03:44:44.848Z,62.44
2024-01-16T03:45:51.411Z,62.34
2024-01-16T03:46:57.677Z,62.52
2024-01-16T03:48:04.578Z,62.43
2024-01-16T03:49:08.647Z,62.35
2024-01-16T03:50:12.832Z,62.44
2024-01-16T03:51:22.097Z,62.40
2024-01-16T03:52:29.219Z,62.51
2024-01-16T03:53:33.157Z,62.52
2024-01-16T03:54:39.621Z,62.60
2024-01-16T03:55:43.541Z,62.37
2024-01-16T03:56:54.314Z,62.57
2024-01-16T03:57:58.210Z,62.37
2024-01-16T03:59:05.126Z,62.56
2024-01-16T04:00:13.858Z,62.66
2024-01-16T04:01:20.455Z,62.50
2024-01-16T04:02:24.514Z,62.55
2024-01-16T04:03:31.048Z,62.61
2024-01-16T04:04:35.119Z,62.77
2024-01-16T04:05:41.839Z,62.78
2024-01-16T04:06:45.794Z,62.75
2024-01-16T04:07:52.524Z,62.84
2024-01-16T04:08:56.488Z,62.84
2024-01-16T04:10:04.232Z,62.83
2024-01-16T04:11:13.731Z,62.81
2024-01-16T04:12:25.914Z,62.74
2024-01-16T04:13:29.853Z,62.73
2024-01-16T04:14:37.409Z,62.66
2024-01-16T04:15:41.558Z,62.71
2024-01-16T04:16:50.605Z,62.86
2024-01-16T04:17:57.753Z,62.89
2024-01-16T04:19:06.621Z,62.52
2024-01-16T04:20:13.261Z,62.80
2024-01-16T04:21:20.828Z,62.79
2024-01-16T04:22:27.282Z,62.69
2024-01-16T04:23:33.866Z,62.95
2024-01-16T04:24:37.763Z,62.91
2024-01-16T04:25:44.645Z,62.98
2024-01-16T04:26:53.739Z,63.10
2024-01-16T04:28:07.803Z,63.00
2024-01-16T04:29:15.415Z,63.06
2024-01-16T04:30:21.496Z,63.16
2024-01-16T04:31:25.436Z,63.13
2024-01-16T04:32:34.458Z,62.99
2024-01-16T04:33:41.957Z,63.18
2024-01-16T04:34:51.049Z,63.18
2024-01-16T04:35:54.959Z,63.20
2024-01-16T04:37:01.413Z,63.16
2024-01-16T04:38:05.236Z,63.08
2024-01-16T04:39:12.461Z,63.10
2024-01-16T04:40:19.024Z,63.19
2024-01-16T04:41:25.543Z,63.09
2024-01-16T04:42:31.714Z,63.14
2024-01-16T04:43:43.042Z,63.34
2024-01-16T04:44:46.914Z,63.06
2024-01-16T04:45:53.523Z,63.37
2024-01-16T04:46:59.560Z,63.25
2024-01-16T04:48:07.123Z,63.30
2024-01-16T04:49:11.088Z,63.27
2024-01-16T04:50:17.613Z,63.49
2024-01-16T04:51:26.459Z,63.50
2024-01-16T04:52:30.410Z,63.39
2024-01-16T04:53:41.861Z,63.49
2024-01-16T04:54:48.280Z,63.47
2024-01-16T04:55:54.739Z,63.49
2024-01-16T04:56:58.609Z,63.28
2024-01-16T04:58:05.267Z,63.31
2024-01-16T04:59:13.519Z,63.43
2024-01-16T05:00:21.594Z,63.54
2024-01-16T05:01:28.446Z,63.29
2024-01-16T05:02:34.928Z,63.30
2024-01-16T05:03:41.336Z,63.53
2024-01-16T05:04:53.169Z,63.56
2024-01-16T05:05:58.245Z,63.64
2024-01-16T05:07:04.896Z,63.84
2024-01-16T05:08:11.847Z,63.90
2024-01-16T05:09:18.305Z,63.79
2024-01-16T05:10:22.129Z,64.05
2024-01-16T05:11:28.638Z,63.91
2024-01-16T05:12:32.538Z,63.98
2024-01-16T05:13:39.095Z,63.91
2024-01-16T05:14:47.943Z,63.91
2024-01-16T05:15:54.463Z,63.87
2024-01-16T05:16:58.375Z,63.94
2024-01-16T05:18:11.518Z,63.78
2024-01-16T05:19:16.504Z,63.85
2024-01-16T05:20:23.412Z,63.98
2024-01-16T05:21:29.724Z,63.62
2024-01-16T05:22:40.423Z,63.68
2024-01-16T05:23:48.465Z,63.88
2024-01-16T05:24:55.149Z,63.90
2024-01-16T05:25:59.193Z,63.89
2024-01-16T05:27:05.875Z,63.95
2024-01-16T05:28:09.827Z,64.18
2024-01-16T05:29:18.964Z,64.04
2024-01-16T05:30:25.511Z,64.19
2024-01-16T05:31:34.676Z,64.26
2024-01-16T05:32:42.860Z,64.13
2024-01-16T05:33:49.604Z,64.03
2024-01-16T05:34:53.572Z,63.99
2024-01-16T05:36:03.530Z,63.96
2024-01-16T05:37:09.518Z,64.02
2024-01-16T05:38:19.170Z,64.18
2024-01-16T05:39:25.752Z,64.18
2024-01-16T05:40:29.590Z,64.16
2024-01-16T05:41:37.678Z,64.06
2024-01-16T05:42:44.115Z,64.19
2024-01-16T05:43:50.628Z,64.13
2024-01-16T05:44:55.099Z,64.11
2024-01-16T05:46:04.498Z,64.12
2024-01-16T05:47:08.406Z,64.12
2024-01-16T05:48:15.383Z,64.16
2024-01-16T05:49:21.680Z,64.05
2024-01-16T05:50:31.522Z,64.11
2024-01-16T05:51:36.508Z,64.16
2024-01-16T05:52:45.530Z,64.05
2024-01-16T05:53:53.417Z,63.95
2024-01-16T05:55:03.758Z,64.13
2024-01-16T05:56:08.346Z,63.96
2024-01-16T05:57:16.962Z,63.88
2024-01-16T05:58:28.410Z,64.04
2024-01-16T05:59:34.887Z,63.93
2024-01-16T06:00:40.886Z,63.88
2024-01-16T06:01:50.440Z,64.08
2024-01-16T06:02:54.383Z,64.07
2024-01-16T06:04:01.220Z,64.01
2024-01-16T06:05:08.405Z,63.97
2024-01-16T06:06:15.085Z,63.80
2024-01-16T06:07:19.867Z,63.85
2024-01-16T06:08:28.740Z,63.72
2024-01-16T06:09:33.643Z,63.99
2024-01-16T06:10:43.082Z,64.11
2024-01-16T06:11:47.093Z,64.14
2024-01-16T06:12:53.920Z,63.94
2024-01-16T06:13:57.745Z,64.00
2024-01-16T06:15:04.330Z,63.99
2024-01-16T06:16:09.391Z,64.05
2024-01-16T06:17:29.718Z,64.21
2024-01-16T06:18:33.793Z,64.49
2024-01-16T06:19:42.815Z,64.59
2024-01-16T06:20:48.007Z,64.69
2024-01-16T06:21:57.239Z,64.63
2024-01-16T06:23:01.165Z,64.70
2024-01-16T06:24:07.843Z,64.60
2024-01-16T06:25:11.867Z,64.28
2024-01-16T06:26:20.679Z,64.43
2024-01-16T06:27:27.443Z,64.48
2024-01-16T06:28:33.905Z,64.24
2024-01-16T06:29:56.651Z,64.32
2024-01-16T06:31:06.282Z,64.37
2024-01-16T06:32:15.035Z,64.25
2024-01-16T06:33:21.698Z,64.32
2024-01-16T06:34:28.733Z,64.23
2024-01-16T06:35:51.038Z,64.35
2024-01-16T06:36:56.738Z,64.32
2024-01-16T06:38:06.314Z,64.36
2024-01-16T06:39:10.116Z,64.19
2024-01-16T06:40:17.184Z,64.16
2024-01-16T06:41:24.271Z,64.23
2024-01-16T06:42:32.959Z,64.20
2024-01-16T06:43:37.078Z,64.14
2024-01-16T06:44:43.605Z,64.20
2024-01-16T06:45:49.609Z,64.11
2024-01-16T06:46:56.301Z,64.07
2024-01-16T06:48:03.081Z,63.99
2024-01-16T06:49:07.989Z,64.03
2024-01-16T06:50:14.499Z,64.28
2024-01-16T06:51:19.620Z,64.20
2024-01-16T06:52:28.536Z,64.38
2024-01-16T06:53:37.164Z,64.25
2024-01-16T06:54:43.751Z,64.41
2024-01-16T06:55:47.642Z,64.73
2024-01-16T06:56:51.593Z,64.87
2024-01-16T06:58:00.625Z,65.06
2024-01-16T06:59:05.966Z,65.08
2024-01-16T07:00:16.304Z,65.08
2024-01-16T07:01:20.409Z,65.08
2024-01-16T07:02:29.644Z,65.05
2024-01-16T07:03:36.329Z,64.89
2024-01-16T07:04:45.483Z,65.05
2024-01-16T07:05:52.438Z,65.16
2024-01-16T07:07:01.103Z,65.27
2024-01-16T07:08:05.525Z,65.21
2024-01-16T07:09:13.447Z,65.16
2024-01-16T07:10:22.634Z,65.23
2024-01-16T07:11:29.175Z,65.18
2024-01-16T07:12:35.782Z,64.81
2024-01-16T07:13:42.367Z,64.85
2024-01-16T07:14:46.313Z,65.17
2024-01-16T07:15:55.309Z,65.13
2024-01-16T07:17:00.357Z,65.12
2024-01-16T07:18:08.019Z,65.02
2024-01-16T07:19:14.850Z,65.07
2024-01-16T07:20:21.882Z,65.12
2024-01-16T07:21:26.047Z,65.10
2024-01-16T07:22:32.732Z,64.96
2024-01-16T07:23:40.818Z,64.74
2024-01-16T07:24:47.328Z,65.06
2024-01-16T07:25:54.306Z,65.16
2024-01-16T07:27:00.824Z,65.08
2024-01-16T07:28:05.081Z,65.21
2024-01-16T07:29:11.759Z,65.29
2024-01-16T07:30:18.246Z,65.22
2024-01-16T07:31:27.217Z,65.19
2024-01-16T07:32:32.698Z,65.17
2024-01-16T07:33:41.690Z,65.16
2024-01-16T07:34:51.350Z,65.31
2024-01-16T07:35:58.111Z,65.37
2024-01-16T07:37:05.262Z,65.31
2024-01-16T07:38:11.745Z,65.29
2024-01-16T07:39:15.641Z,65.37
2024-01-16T07:40:22.299Z,65.43
2024-01-16T07:41:28.774Z,65.28
2024-01-16T07:42:35.771Z,65.27
2024-01-16T07:43:39.807Z,65.41
2024-01-16T07:44:49.034Z,65.48
2024-01-16T07:45:55.321Z,65.38
2024-01-16T07:47:06.230Z,65.33
2024-01-16T07:48:10.284Z,65.27
2024-01-16T07:49:19.095Z,65.28
2024-01-16T07:50:29.354Z,65.33
2024-01-16T07:51:39.033Z,65.18
2024-01-16T07:52:43.041Z,65.29
2024-01-16T07:53:50.384Z,65.20
2024-01-16T07:54:56.680Z,65.24
2024-01-16T07:56:03.279Z,65.28
2024-01-16T07:57:07.722Z,65.06
2024-01-16T07:58:16.684Z,65.01
2024-01-16T07:59:20.691Z,64.93
2024-01-16T08:00:28.945Z,64.96
2024-01-16T08:01:33.766Z,64.98
2024-01-16T08:02:43.424Z,65.04
2024-01-16T08:03:47.601Z,65.03
2024-01-16T08:04:54.218Z,64.92
2024-01-16T08:06:02.397Z,64.91
2024-01-16T08:07:09.678Z,64.85
2024-01-16T08:08:13.698Z,64.85
2024-01-16T08:09:18.700Z,64.95
2024-01-16T08:10:27.891Z,64.98
2024-01-16T08:11:32.965Z,65.05
2024-01-16T08:12:42.056Z,64.95
2024-01-16T08:13:46.098Z,65.08
2024-01-16T08:14:53.487Z,65.17
2024-01-16T08:15:57.491Z,65.34
2024-01-16T08:17:08.143Z,65.48
2024-01-16T08:18:17.160Z,65.30
2024-01-16T08:19:23.872Z,65.19
2024-01-16T08:20:27.984Z,65.19
2024-01-16T08:21:37.497Z,64.83
2024-01-16T08:22:43.619Z,64.95
2024-01-16T08:23:52.481Z,64.99
2024-01-16T08:24:56.937Z,65.20
2024-01-16T08:26:03.511Z,65.34
2024-01-16T08:27:10.605Z,65.44
2024-01-16T08:28:18.238Z,65.34
2024-01-16T08:29:23.442Z,65.24
2024-01-16T08:30:32.212Z,65.22
2024-01-16T08:31:38.968Z,64.98
2024-01-16T08:32:45.618Z,64.99
2024-01-16T08:33:52.285Z,65.00
2024-01-16T08:35:03.138Z,64.85
2024-01-16T08:36:07.752Z,65.00
2024-01-16T08:37:19.454Z,65.16
2024-01-16T08:38:23.580Z,64.98
2024-01-16T08:39:34.332Z,65.20
2024-01-16T08:40:38.320Z,65.18
2024-01-16T08:41:47.225Z,65.06
2024-01-16T08:43:06.845Z,65.07
2024-01-16T08:44:16.736Z,65.03
2024-01-16T08:45:23.488Z,64.91
2024-01-16T08:46:32.718Z,64.83
2024-01-16T08:47:38.966Z,65.00
2024-01-16T08:48:48.303Z,65.05
2024-01-16T08:49:54.677Z,65.01
2024-01-16T08:51:05.191Z,64.81
2024-01-16T08:52:11.642Z,64.86
2024-01-16T08:53:24.541Z,64.84
2024-01-16T08:54:28.801Z,64.81
2024-01-16T08:55:37.728Z,64.92
2024-01-16T08:56:44.116Z,64.92
2024-01-16T08:57:53.321Z,64.93
2024-01-16T08:59:00.234Z,64.84
2024-01-16T09:00:12.249Z,64.76
2024-01-16T09:01:16.482Z,64.79
2024-01-16T09:02:23.101Z,64.74
2024-01-16T09:03:27.056Z,64.78
2024-01-16T09:04:34.284Z,64.79
2024-01-16T09:05:40.635Z,64.58
2024-01-16T09:06:47.731Z,64.69
2024-01-16T09:07:52.160Z,64.70
2024-01-16T09:09:01.523Z,64.76
2024-01-16T09:10:07.149Z,64.69
2024-01-16T09:11:13.765Z,64.53
2024-01-16T09:12:17.847Z,64.52
2024-01-16T09:13:26.947Z,64.47
2024-01-16T09:14:30.857Z,64.41
2024-01-16T09:15:41.000Z,64.45
2024-01-16T09:16:45.215Z,64.40
2024-01-16T09:17:49.296Z,64.45
2024-01-16T09:18:56.180Z,64.41
2024-01-16T09:20:00.353Z,64.46
2024-01-16T09:21:07.596Z,64.45
2024-01-16T09:22:11.510Z,64.46
2024-01-16T09:23:18.240Z,64.49
2024-01-16T09:24:27.381Z,64.51
2024-01-16T09:25:47.780Z,64.46
2024-01-16T09:26:53.941Z,64.65
2024-01-16T09:28:00.582Z,64.64
2024-01-16T09:29:10.141Z,64.53
2024-01-16T09:30:50.173Z,64.57
2024-01-16T09:32:05.842Z,64.53
2024-01-16T09:33:14.867Z,64.36
2024-01-16T09:34:19.389Z,64.50
2024-01-16T09:35:28.369Z,64.49
2024-01-16T09:38:35.269Z,64.64
2024-01-16T09:39:44.353Z,64.72
2024-01-16T09:40:53.865Z,64.71
2024-01-16T09:42:02.419Z,64.75
2024-01-16T09:43:12.072Z,64.66
2024-01-16T09:44:16.212Z,64.68
2024-01-16T09:45:25.816Z,64.61
2024-01-16T09:46:32.668Z,64.67
2024-01-16T09:47:41.438Z,64.73
2024-01-16T09:48:47.478Z,64.70
2024-01-16T09:49:54.378Z,64.74
2024-01-16T09:50:58.582Z,64.76
2024-01-16T09:52:07.359Z,64.59
2024-01-16T09:53:12.164Z,64.63
2024-01-16T09:54:18.820Z,64.62
2024-01-16T09:55:28.550Z,64.69
2024-01-16T09:56:37.672Z,64.81
2024-01-16T09:57:47.638Z,64.75
2024-01-16T09:59:07.531Z,64.84
2024-01-16T10:01:09.228Z,64.78
2024-01-16T10:02:16.164Z,64.88
2024-01-16T10:03:38.483Z,64.92
2024-01-16T10:04:43.953Z,65.04
2024-01-16T10:05:52.762Z,65.05
2024-01-16T10:07:03.720Z,65.01
2024-01-16T10:08:10.303Z,65.03
2024-01-16T10:09:17.609Z,65.09
2024-01-16T10:10:30.998Z,65.18
2024-01-16T10:11:46.667Z,65.21
2024-01-16T10:14:12.473Z,65.05
2024-01-16T10:15:29.103Z,65.12
2024-01-16T10:17:04.283Z,64.96
2024-01-16T10:19:09.487Z,65.05
2024-01-16T10:23:14.899Z,64.86
2024-01-16T10:24:21.089Z,64.96
2024-01-16T10:25:25.331Z,64.88
2024-01-16T10:26:31.885Z,64.90
2024-01-16T10:27:43.025Z,64.99
2024-01-16T10:28:51.931Z,64.83
2024-01-16T10:30:00.400Z,64.72
2024-01-16T10:31:06.227Z,64.59
2024-01-16T10:32:13.522Z,64.66
2024-01-16T10:33:18.928Z,64.60
2024-01-16T10:34:28.140Z,64.34
2024-01-16T10:35:32.431Z,64.53
2024-01-16T10:36:39.800Z,64.65
2024-01-16T10:37:48.131Z,64.42
2024-01-16T10:39:14.703Z,64.47
2024-01-16T10:40:26.283Z,64.67
2024-01-16T10:47:17.639Z,64.62
2024-01-16T10:49:07.833Z,64.47
2024-01-16T10:50:14.275Z,64.47
2024-01-16T10:51:31.201Z,64.61
2024-01-16T10:52:36.937Z,64.50
2024-01-16T10:53:48.227Z,64.60
2024-01-16T10:54:54.165Z,64.66
2024-01-16T10:56:05.555Z,64.73
2024-01-16T10:57:10.800Z,64.84
2024-01-16T10:58:18.157Z,64.97
2024-01-16T10:59:35.683Z,64.69
2024-01-16T11:00:46.058Z,64.63
2024-01-16T11:01:56.314Z,64.68
2024-01-16T11:03:11.714Z,64.76
2024-01-16T11:04:22.605Z,64.71
2024-01-16T11:05:34.693Z,64.73
2024-01-16T11:06:43.828Z,64.72
2024-01-16T11:07:53.269Z,64.82
2024-01-16T11:08:59.757Z,64.78
2024-01-16T11:10:07.158Z,64.75
2024-01-16T11:11:15.504Z,64.63
2024-01-16T11:12:23.515Z,64.76
2024-01-16T11:13:28.104Z,64.62
2024-01-16T11:14:36.886Z,63.84
2024-01-16T11:15:43.469Z,64.00
2024-01-16T11:16:53.823Z,64.22
2024-01-16T11:17:58.264Z,64.22
2024-01-16T11:19:25.593Z,64.09
2024-01-16T11:21:57.087Z,64.22
2024-01-16T11:23:03.070Z,64.13
2024-01-16T11:24:12.684Z,63.87
2024-01-16T11:25:20.777Z,63.80
2024-01-16T11:26:29.631Z,63.52
2024-01-16T11:27:38.003Z,63.47
2024-01-16T11:28:41.892Z,63.38
2024-01-16T11:29:54.523Z,63.60
2024-01-16T11:30:58.642Z,63.30
2024-01-16T11:32:18.351Z,63.36
2024-01-16T11:33:44.525Z,63.24
2024-01-16T11:35:01.044Z,63.42
2024-01-16T11:37:04.151Z,63.46
2024-01-16T11:38:16.053Z,63.16
2024-01-16T11:39:26.964Z,63.15
2024-01-16T11:40:34.451Z,63.41
2024-01-16T11:41:54.977Z,63.23
2024-01-16T11:42:58.810Z,63.37
2024-01-16T11:44:03.803Z,63.44
2024-01-16T11:45:12.290Z,63.59
2024-01-16T11:46:18.961Z,63.31
2024-01-16T11:47:30.827Z,63.46
2024-01-16T11:48:39.988Z,63.67
2024-01-16T11:49:44.283Z,63.78
2024-01-16T11:51:44.282Z,63.78
2024-01-16T11:52:49.284Z,63.95
2024-01-16T11:53:58.538Z,64.06
2024-01-16T11:55:27.225Z,64.14
2024-01-16T11:57:07.195Z,64.14
2024-01-16T11:58:46.413Z,64.08
2024-01-16T12:00:14.223Z,64.15
2024-01-16T12:01:21.209Z,64.23
2024-01-16T12:02:42.625Z,64.23
2024-01-16T12:04:03.208Z,64.22
2024-01-16T12:05:09.977Z,64.19
2024-01-16T12:06:18.388Z,64.28
2024-01-16T12:07:28.033Z,64.28
2024-01-16T12:08:32.123Z,64.34
2024-01-16T12:09:35.685Z,64.37
2024-01-16T12:10:51.287Z,64.27
2024-01-16T12:11:59.220Z,64.35
2024-01-16T12:13:06.099Z,64.47
2024-01-16T12:14:10.175Z,64.56
2024-01-16T12:15:21.261Z,64.47
2024-01-16T12:16:25.248Z,64.51
2024-01-16T12:17:31.969Z,64.58
2024-01-16T12:18:42.585Z,64.60
2024-01-16T12:19:54.821Z,64.73
2024-01-16T12:21:00.130Z,64.69
2024-01-16T12:22:06.991Z,64.93
2024-01-16T12:23:17.657Z,64.91
2024-01-16T12:24:24.315Z,65.04
2024-01-16T12:26:00.401Z,65.05
2024-01-16T12:27:02.471Z,65.01
2024-01-16T12:28:11.701Z,64.73
2024-01-16T12:29:22.334Z,64.99
2024-01-16T12:30:31.930Z,64.98
2024-01-16T12:31:38.917Z,65.03
2024-01-16T12:32:43.165Z,65.00
2024-01-16T12:33:57.917Z,65.02
2024-01-16T12:35:06.508Z,65.08
2024-01-16T12:36:15.135Z,65.14
2024-01-16T12:37:21.355Z,65.08
2024-01-16T12:38:30.485Z,65.13
2024-01-16T12:39:34.768Z,65.25
2024-01-16T12:40:44.718Z,65.33
2024-01-16T12:41:48.831Z,65.43
2024-01-16T12:42:58.893Z,65.57
2024-01-16T12:44:10.891Z,65.51
2024-01-16T12:45:22.657Z,65.47
2024-01-16T12:46:34.012Z,65.53
2024-01-16T12:47:40.968Z,65.70
2024-01-16T12:48:56.481Z,65.65
2024-01-16T12:50:11.545Z,66.22
2024-01-16T12:51:23.506Z,65.86
2024-01-16T12:52:33.680Z,65.95
2024-01-16T12:53:41.423Z,66.13
2024-01-16T12:54:53.793Z,66.05
2024-01-16T12:56:05.944Z,65.77
2024-01-16T12:57:15.246Z,65.98
2024-01-16T12:58:25.661Z,65.72
2024-01-16T12:59:33.698Z,65.86
2024-01-16T13:00:40.831Z,65.99
2024-01-16T13:01:49.400Z,65.97
2024-01-16T13:02:54.418Z,66.08
2024-01-16T13:04:08.445Z,66.15
2024-01-16T13:05:19.079Z,66.24
2024-01-16T13:06:28.188Z,66.40
2024-01-16T13:07:34.861Z,66.69
2024-01-16T13:08:46.652Z,66.85
2024-01-16T13:09:50.574Z,66.80
2024-01-16T13:11:13.527Z,66.96
2024-01-16T13:12:22.154Z,67.09
2024-01-16T13:13:29.471Z,67.24
2024-01-16T13:14:33.423Z,66.87
2024-01-16T13:15:40.004Z,66.83
2024-01-16T13:16:43.891Z,66.87
2024-01-16T13:17:52.417Z,66.88
2024-01-16T13:19:02.702Z,66.88
2024-01-16T13:20:16.176Z,66.85
2024-01-16T13:21:20.355Z,67.15
2024-01-16T13:22:36.182Z,67.27
2024-01-16T13:23:50.208Z,67.10
2024-01-16T13:25:05.386Z,67.01
2024-01-16T13:26:13.821Z,67.06
2024-01-16T13:27:22.193Z,66.90
2024-01-16T13:28:29.932Z,67.00
2024-01-16T13:29:39.483Z,66.96
2024-01-16T13:30:47.744Z,67.02
2024-01-16T13:31:57.243Z,66.98
2024-01-16T13:33:01.902Z,66.90
2024-01-16T13:34:11.352Z,66.81
2024-01-16T13:35:15.522Z,66.88
2024-01-16T13:36:46.364Z,67.12
2024-01-16T13:37:51.550Z,66.74
2024-01-16T13:38:58.067Z,66.69
2024-01-16T13:40:12.798Z,66.56
2024-01-16T13:41:17.054Z,66.33
2024-01-16T13:42:24.203Z,66.24
2024-01-16T13:43:28.086Z,66.35
2024-01-16T13:44:34.670Z,66.29
2024-01-16T13:45:42.757Z,66.41
2024-01-16T13:46:57.832Z,66.31
2024-01-16T13:48:11.260Z,66.27
2024-01-16T13:49:17.738Z,66.39
2024-01-16T13:50:22.167Z,66.47
2024-01-16T13:51:31.583Z,66.26
2024-01-16T13:52:51.294Z,66.14
2024-01-16T13:53:56.672Z,66.07
2024-01-16T13:55:06.938Z,66.12
2024-01-16T13:58:43.767Z,65.96
2024-01-16T13:59:47.836Z,65.98
2024-01-16T14:00:58.193Z,66.07
2024-01-16T14:02:06.561Z,66.26
2024-01-16T14:03:21.149Z,66.32
2024-01-16T14:07:47.265Z,66.48
2024-01-16T14:08:55.995Z,66.72
2024-01-16T14:10:05.284Z,66.47
2024-01-16T14:11:10.691Z,66.56
2024-01-16T14:12:20.121Z,66.25
2024-01-16T14:18:13.500Z,66.40
2024-01-16T14:19:18.223Z,66.27
2024-01-16T14:21:13.158Z,66.09
2024-01-16T14:22:17.550Z,65.86
2024-01-16T14:23:26.735Z,65.53
2024-01-16T14:24:35.900Z,65.13
2024-01-16T14:25:46.801Z,65.24
2024-01-16T14:26:50.788Z,65.47
2024-01-16T14:28:04.883Z,65.50
2024-01-16T14:29:10.092Z,65.50
2024-01-16T14:30:21.153Z,65.39
2024-01-16T14:31:25.023Z,65.52
2024-01-16T14:32:34.118Z,65.55
2024-01-16T14:33:38.175Z,65.30
2024-01-16T14:34:44.800Z,65.48
2024-01-16T14:35:48.782Z,65.39
2024-01-16T14:36:55.505Z,65.46
2024-01-16T14:38:01.857Z,65.58
2024-01-16T14:39:14.823Z,65.65
2024-01-16T14:40:21.944Z,65.62
2024-01-16T14:41:28.603Z,65.50
2024-01-16T14:42:35.306Z,65.76
2024-01-16T14:43:42.210Z,65.58
2024-01-16T14:44:46.327Z,65.66
2024-01-16T14:45:53.096Z,65.64
2024-01-16T14:46:57.164Z,65.60
2024-01-16T14:48:05.954Z,65.65
2024-01-16T14:49:13.228Z,65.58
2024-01-16T14:50:23.011Z,65.43
2024-01-16T14:51:27.308Z,65.68
2024-01-16T14:52:35.241Z,65.62
2024-01-16T14:53:39.804Z,65.63
2024-01-16T14:54:51.573Z,65.52
2024-01-16T14:55:55.524Z,65.74
2024-01-16T14:57:02.067Z,65.61
2024-01-16T14:58:06.168Z,65.62
2024-01-16T14:59:15.304Z,65.76
2024-01-16T15:00:21.185Z,65.89
2024-01-16T15:01:28.298Z,65.69
2024-01-16T15:02:34.063Z,65.81